»·PEaware :: N313KP KPHX-KPSP

N313KP :: KPHX-KPSP

FLIGHT INFORMATION

Flight Status: Arrived
Operator: Privately registered:
United States
More flights under this callsign
Pilot: Erik A. (17503)
Aircraft: BEECH AIRCRAFT BONANZA
(BE35)
More flights by this aircraft type
Origin: KPHX Phoenix Sky Harbor Intl
United States
Destination: KPSP Palm Springs Intl
United States
More flights between these airports :: More routes between these airports
Route: +
File this flight plan on PilotEdge
Remarks: FF
Altitude:
(Current/Filed)
4,500ft
Speed:
(Current/Filed)
0kts
Departed: 31-Jul-20 01:54 PM
Arrived: 31-Jul-20 03:31 PM
Distance/Time
Traveled:
226nm/1:37
Distance/Time
To Go:
Arrived

Flight Plot

Page will automatically refresh every two minutes.

Flight plan parsing failed; only flown route is shown


Map Options




Map Legend


Flown Route
Filed Route
Departure Airport
Arrival Airport
Navaid (VOR, NDB)
Fix

Horizontal Profiles

Position Reports

Time Latitude Longitude Heading Altitude Ground
Speed
31-Jul-20 13:38 33.425475 -112.021261 174 1138ft 0kts
31-Jul-20 13:39 33.425474 -112.021261 174 1138ft 0kts
31-Jul-20 13:40 33.425472 -112.021260 174 1138ft 0kts
31-Jul-20 13:41 33.425470 -112.021260 174 1138ft 0kts
31-Jul-20 13:42 33.425468 -112.021260 174 1138ft 0kts
31-Jul-20 13:43 33.425466 -112.021260 174 1138ft 0kts
31-Jul-20 13:44 33.425464 -112.021260 174 1138ft 0kts
31-Jul-20 13:45 33.425423 -112.021381 292 1138ft 4kts
31-Jul-20 13:46 33.427398 -112.021145 1 1138ft 9kts
31-Jul-20 13:47 33.427794 -112.025560 269 1138ft 18kts
31-Jul-20 13:48 33.428208 -112.026936 1 1138ft 0kts
31-Jul-20 13:49 33.428218 -112.026936 1 1138ft 0kts
31-Jul-20 13:50 33.428227 -112.026936 1 1138ft 0kts
31-Jul-20 13:51 33.428234 -112.026935 1 1138ft 0kts
31-Jul-20 13:52 33.428864 -112.026619 90 1138ft 12kts
31-Jul-20 13:53 33.428365 -112.000657 88 1433ft 105kts
31-Jul-20 13:54 33.427087 -111.961636 91 2146ft 126kts
31-Jul-20 13:55 33.412907 -111.928916 175 2736ft 137kts
31-Jul-20 13:56 33.376152 -111.934295 197 3640ft 130kts
31-Jul-20 13:57 33.339320 -111.945945 196 4160ft 142kts
31-Jul-20 13:58 33.310115 -111.979523 222 4360ft 146kts
31-Jul-20 13:59 33.291899 -112.023592 268 4376ft 165kts
31-Jul-20 14:00 33.292331 -112.080988 267 3953ft 175kts
31-Jul-20 14:01 33.288342 -112.137587 262 3892ft 169kts
31-Jul-20 14:02 33.279680 -112.193333 277 3591ft 170kts
31-Jul-20 14:03 33.312261 -112.229997 323 3864ft 162kts
31-Jul-20 14:04 33.346149 -112.266748 304 3968ft 163kts
31-Jul-20 14:05 33.366145 -112.314638 255 3939ft 173kts
31-Jul-20 14:06 33.349457 -112.367151 240 3795ft 167kts
31-Jul-20 14:07 33.314775 -112.399216 199 3562ft 162kts
31-Jul-20 14:08 33.273771 -112.418760 196 3850ft 154kts
31-Jul-20 14:09 33.235944 -112.444272 228 3929ft 157kts
31-Jul-20 14:10 33.229586 -112.489588 286 4783ft 136kts
31-Jul-20 14:11 33.240352 -112.537593 281 4980ft 174kts
31-Jul-20 14:12 33.247372 -112.598201 281 4154ft 183kts
31-Jul-20 14:13 33.279429 -112.645267 313 3668ft 183kts
31-Jul-20 14:14 33.312512 -112.682452 314 4197ft 151kts
31-Jul-20 14:15 33.342189 -112.718757 313 4489ft 164kts
31-Jul-20 14:16 33.374419 -112.758344 313 4485ft 162kts
31-Jul-20 14:17 33.405967 -112.797325 313 4493ft 169kts
31-Jul-20 14:18 33.433924 -112.841877 291 4489ft 171kts
31-Jul-20 14:19 33.451934 -112.893103 292 4491ft 162kts
31-Jul-20 14:20 33.469200 -112.942958 292 4498ft 162kts
31-Jul-20 14:21 33.486408 -112.993053 292 4499ft 163kts
31-Jul-20 14:22 33.503772 -113.043936 291 4494ft 169kts
31-Jul-20 14:24 33.521721 -113.096193 292 4495ft 170kts
31-Jul-20 14:25 33.536144 -113.148530 285 4496ft 160kts
31-Jul-20 14:26 33.542314 -113.201812 276 4504ft 168kts
31-Jul-20 14:27 33.547026 -113.257456 277 4500ft 170kts
31-Jul-20 14:28 33.552076 -113.313470 278 4496ft 170kts
31-Jul-20 14:29 33.557209 -113.369327 277 4499ft 170kts
31-Jul-20 14:30 33.561996 -113.425315 274 4492ft 170kts
31-Jul-20 14:31 33.566253 -113.480710 277 4488ft 167kts
31-Jul-20 14:32 33.570550 -113.535866 278 4485ft 163kts
31-Jul-20 14:33 33.574625 -113.589406 278 4481ft 157kts
31-Jul-20 14:34 33.578161 -113.642138 277 4485ft 165kts
31-Jul-20 14:35 33.581864 -113.696682 279 4481ft 158kts
31-Jul-20 14:36 33.585515 -113.748940 273 4477ft 156kts
31-Jul-20 14:37 33.590919 -113.800279 280 4475ft 155kts
31-Jul-20 14:38 33.595851 -113.851690 280 4497ft 154kts
31-Jul-20 14:39 33.601968 -113.902117 283 4551ft 153kts
31-Jul-20 14:40 33.614850 -113.950588 292 4545ft 153kts
31-Jul-20 14:40 33.626821 -113.990806 292 4537ft 153kts
31-Jul-20 14:41 33.641673 -114.038913 292 4534ft 153kts
31-Jul-20 14:43 33.659045 -114.095104 292 4528ft 154kts
31-Jul-20 14:43 33.670981 -114.135484 292 4530ft 153kts
31-Jul-20 14:44 33.682057 -114.184709 270 4524ft 157kts
31-Jul-20 14:45 33.678535 -114.237066 269 4521ft 157kts
31-Jul-20 14:46 33.673715 -114.289478 264 4520ft 158kts
31-Jul-20 14:47 33.666210 -114.341445 265 4519ft 158kts
31-Jul-20 14:48 33.658938 -114.393760 264 4506ft 159kts
31-Jul-20 14:49 33.651434 -114.446124 263 4511ft 159kts
31-Jul-20 14:50 33.644168 -114.498446 264 4510ft 158kts
31-Jul-20 14:51 33.637765 -114.551171 264 4507ft 159kts
31-Jul-20 14:52 33.631266 -114.603591 264 4507ft 159kts
31-Jul-20 14:53 33.625339 -114.656301 264 4506ft 159kts
31-Jul-20 14:54 33.619479 -114.708975 264 4503ft 159kts
31-Jul-20 14:55 33.613646 -114.761721 265 4506ft 159kts
31-Jul-20 14:56 33.607921 -114.814567 263 4504ft 159kts
31-Jul-20 14:57 33.609965 -114.867254 276 4503ft 158kts
31-Jul-20 14:58 33.614304 -114.920069 276 4502ft 159kts
31-Jul-20 14:59 33.619343 -114.972677 278 4499ft 159kts
31-Jul-20 15:00 33.624796 -115.025246 278 4505ft 158kts
31-Jul-20 15:01 33.633569 -115.076896 289 4432ft 164kts
31-Jul-20 15:02 33.649667 -115.127581 294 4338ft 162kts
31-Jul-20 15:03 33.665615 -115.177452 289 4315ft 159kts
31-Jul-20 15:04 33.681839 -115.226995 293 4368ft 152kts
31-Jul-20 15:05 33.690124 -115.278728 277 4297ft 157kts
31-Jul-20 15:06 33.694794 -115.330609 273 4394ft 157kts
31-Jul-20 15:07 33.704892 -115.381092 297 4470ft 155kts
31-Jul-20 15:08 33.707379 -115.430224 270 4524ft 157kts
31-Jul-20 15:09 33.696914 -115.481690 251 4548ft 166kts
31-Jul-20 15:10 33.680254 -115.535257 243 4357ft 174kts
31-Jul-20 15:11 33.661597 -115.587957 256 4258ft 168kts
31-Jul-20 15:12 33.659000 -115.643184 267 4218ft 166kts
31-Jul-20 15:13 33.654008 -115.698764 272 4283ft 168kts
31-Jul-20 15:14 33.650334 -115.756129 263 4066ft 172kts
31-Jul-20 15:15 33.645558 -115.813389 268 3801ft 170kts
31-Jul-20 15:16 33.647542 -115.869212 279 3787ft 165kts
31-Jul-20 15:17 33.653578 -115.924146 277 3728ft 169kts
31-Jul-20 15:18 33.660846 -115.978960 286 3556ft 165kts
31-Jul-20 15:19 33.672364 -116.031942 281 3455ft 165kts
31-Jul-20 15:20 33.680115 -116.086022 279 3544ft 163kts
31-Jul-20 15:21 33.684671 -116.140839 278 3660ft 164kts
31-Jul-20 15:22 33.693767 -116.196315 287 3376ft 170kts
31-Jul-20 15:23 33.703470 -116.253683 278 2658ft 175kts
31-Jul-20 15:24 33.710092 -116.310534 282 2082ft 166kts
31-Jul-20 15:25 33.722283 -116.359098 295 2184ft 144kts
31-Jul-20 15:26 33.739275 -116.403470 294 2270ft 146kts
31-Jul-20 15:27 33.760301 -116.446631 318 2003ft 149kts
31-Jul-20 15:28 33.788867 -116.471694 322 1495ft 99kts
31-Jul-20 15:29 33.809825 -116.490221 323 817ft 87kts
31-Jul-20 15:30 33.825221 -116.503788 320 480ft 25kts
31-Jul-20 15:31 33.824598 -116.504224 174 480ft 0kts
31-Jul-20 15:32 33.824556 -116.504218 172 480ft 1kts
31-Jul-20 15:33 33.823821 -116.504085 184 480ft 10kts
31-Jul-20 15:34 33.825319 -116.506417 271 480ft 10kts
31-Jul-20 15:35 33.825298 -116.509883 237 480ft 5kts
31-Jul-20 15:36 33.825376 -116.510024 77 480ft 0kts
31-Jul-20 15:37 33.825378 -116.510012 77 480ft 0kts
31-Jul-20 15:38 33.825380 -116.510000 77 480ft 0kts
31-Jul-20 15:39 33.825381 -116.509996 77 480ft 0kts
31-Jul-20 15:40 33.825381 -116.509996 77 480ft 0kts
31-Jul-20 15:41 33.825385 -116.509676 91 480ft 3kts
31-Jul-20 15:42 33.825372 -116.508718 95 480ft 2kts
31-Jul-20 15:43 33.824982 -116.505519 144 480ft 13kts
31-Jul-20 15:44 33.820167 -116.501256 143 480ft 26kts

Navigation Log

Ident Type
Flight plan parsing failed, navigation log unavailable